createdAt,value
2019-06-08T00:01:03.664Z,2.47
2019-06-08T00:03:32.582Z,2.73
2019-06-08T00:06:01.610Z,2.20
2019-06-08T00:08:30.486Z,1.83
2019-06-08T00:10:59.354Z,2.73
2019-06-08T00:13:28.428Z,2.30
2019-06-08T00:15:57.552Z,2.83
2019-06-08T00:18:26.605Z,2.20
2019-06-08T00:20:55.550Z,2.60
2019-06-08T00:23:24.647Z,2.00
2019-06-08T00:25:53.602Z,2.13
2019-06-08T00:28:22.786Z,2.17
2019-06-08T00:30:51.751Z,1.63
2019-06-08T00:33:20.638Z,1.80
2019-06-08T00:35:49.511Z,1.90
2019-06-08T00:38:18.863Z,1.30
2019-06-08T00:40:47.928Z,1.43
2019-06-08T00:43:17.278Z,1.80
2019-06-08T00:45:46.255Z,1.33
2019-06-08T00:48:16.644Z,2.00
2019-06-08T00:50:45.712Z,1.87
2019-06-08T00:53:14.752Z,1.53
2019-06-08T00:55:43.718Z,1.57
2019-06-08T00:58:12.785Z,1.10
2019-06-08T01:00:42.065Z,1.77
2019-06-08T01:03:11.051Z,1.70
2019-06-08T01:05:39.967Z,1.47
2019-06-08T01:08:08.953Z,1.43
2019-06-08T01:10:37.915Z,1.67
2019-06-08T01:13:07.063Z,1.70
2019-06-08T01:15:36.110Z,1.70
2019-06-08T01:18:05.220Z,1.70
2019-06-08T01:20:34.268Z,1.90
2019-06-08T01:23:03.186Z,1.80
2019-06-08T01:25:32.159Z,2.30
2019-06-08T01:28:01.118Z,1.47
2019-06-08T01:30:30.429Z,1.87
2019-06-08T01:32:59.646Z,1.47
2019-06-08T01:35:28.845Z,1.07
2019-06-08T01:37:57.940Z,1.40
2019-06-08T01:40:27.463Z,1.17
2019-06-08T01:42:56.479Z,0.80
2019-06-08T01:45:32.907Z,0.90
2019-06-08T01:48:18.749Z,1.10
2019-06-08T01:50:34.095Z,0.90
2019-06-08T01:53:03.416Z,0.77
2019-06-08T01:55:33.220Z,0.90
2019-06-08T01:58:02.382Z,1.17
2019-06-08T02:00:37.683Z,1.00
2019-06-08T02:03:02.370Z,0.87
2019-06-08T02:05:32.520Z,0.80
2019-06-08T02:08:01.699Z,1.00
2019-06-08T02:10:30.896Z,1.30
2019-06-08T02:13:00.107Z,1.03
2019-06-08T02:15:29.314Z,1.00
2019-06-08T02:17:58.268Z,0.87
2019-06-08T02:20:28.697Z,1.00
2019-06-08T02:22:57.864Z,1.00
2019-06-08T02:25:29.372Z,0.93
2019-06-08T02:27:58.682Z,0.90
2019-06-08T02:30:33.560Z,0.90
2019-06-08T02:33:01.711Z,0.60
2019-06-08T02:35:32.266Z,0.90
2019-06-08T02:38:01.418Z,0.67
2019-06-08T02:40:32.447Z,1.00
2019-06-08T02:43:01.283Z,0.60
2019-06-08T02:45:32.047Z,0.80
2019-06-08T02:48:01.052Z,0.80
2019-06-08T02:50:49.046Z,0.80
2019-06-08T02:53:18.727Z,0.77
2019-06-08T02:55:48.719Z,0.80
2019-06-08T02:58:18.464Z,1.10
2019-06-08T03:00:48.138Z,0.80
2019-06-08T03:03:17.259Z,0.80
2019-06-08T03:05:47.912Z,0.80
2019-06-08T03:08:17.090Z,0.80
2019-06-08T03:10:46.255Z,0.50
2019-06-08T03:13:15.321Z,0.93
2019-06-08T03:15:44.275Z,0.83
2019-06-08T03:18:13.179Z,0.97
2019-06-08T03:20:42.866Z,0.93
2019-06-08T03:23:11.822Z,0.40
2019-06-08T03:25:47.249Z,0.73
2019-06-08T03:28:11.410Z,1.07
2019-06-08T03:30:47.460Z,0.70
2019-06-08T03:33:11.231Z,0.70
2019-06-08T03:35:52.560Z,0.60
2019-06-08T03:38:10.968Z,0.70
2019-06-08T03:40:40.637Z,0.87
2019-06-08T03:43:10.742Z,0.90
2019-06-08T03:45:40.782Z,1.33
2019-06-08T03:48:10.243Z,0.60
2019-06-08T03:50:40.218Z,0.60
2019-06-08T03:53:10.129Z,0.77
2019-06-08T03:55:40.495Z,0.70
2019-06-08T03:58:10.508Z,0.93
2019-06-08T04:00:40.482Z,1.00
2019-06-08T04:03:09.688Z,0.70
2019-06-08T04:05:40.826Z,0.77
2019-06-08T04:08:09.464Z,0.83
2019-06-08T04:10:39.859Z,0.77
2019-06-08T04:13:11.571Z,0.80
2019-06-08T04:15:42.090Z,0.70
2019-06-08T04:18:11.059Z,0.63
2019-06-08T04:20:40.391Z,0.70
2019-06-08T04:23:11.752Z,0.70
2019-06-08T04:25:42.370Z,0.47
2019-06-08T04:28:11.591Z,0.57
2019-06-08T04:30:41.489Z,0.73
2019-06-08T04:33:11.410Z,0.73
2019-06-08T04:35:42.557Z,0.60
2019-06-08T04:38:11.165Z,1.10
2019-06-08T04:40:41.647Z,0.60
2019-06-08T04:43:10.803Z,0.80
2019-06-08T04:45:41.146Z,1.00
2019-06-08T04:48:10.403Z,0.70
2019-06-08T04:50:40.899Z,0.60
2019-06-08T04:53:09.931Z,0.70
2019-06-08T04:55:39.431Z,0.60
2019-06-08T04:58:09.635Z,1.40
2019-06-08T05:00:39.098Z,0.80
2019-06-08T05:03:08.547Z,0.77
2019-06-08T05:05:39.166Z,0.60
2019-06-08T05:08:08.200Z,0.83
2019-06-08T05:10:37.120Z,0.90
2019-06-08T05:13:06.091Z,0.60
2019-06-08T05:15:34.968Z,1.07
2019-06-08T05:18:04.503Z,0.70
2019-06-08T05:20:38.899Z,0.70
2019-06-08T05:23:04.519Z,0.77
2019-06-08T05:25:33.773Z,0.80
2019-06-08T05:28:03.172Z,0.63
2019-06-08T05:30:32.868Z,0.73
2019-06-08T05:33:02.613Z,1.17
2019-06-08T05:35:31.680Z,0.93
2019-06-08T05:38:01.117Z,0.90
2019-06-08T05:40:30.401Z,0.60
2019-06-08T05:43:00.186Z,0.93
2019-06-08T05:45:29.264Z,0.90
2019-06-08T05:47:58.519Z,1.00
2019-06-08T05:50:27.538Z,0.87
2019-06-08T05:52:57.374Z,0.60
2019-06-08T05:55:26.283Z,0.57
2019-06-08T05:57:55.275Z,0.80
2019-06-08T06:00:25.137Z,0.70
2019-06-08T06:02:54.039Z,1.13
2019-06-08T06:05:23.121Z,1.03
2019-06-08T06:07:54.233Z,0.57
2019-06-08T06:10:23.110Z,0.93
2019-06-08T06:12:52.203Z,1.20
2019-06-08T06:15:21.257Z,0.73
2019-06-08T06:17:51.433Z,1.37
2019-06-08T06:20:20.975Z,0.70
2019-06-08T06:22:49.938Z,0.60
2019-06-08T06:25:19.040Z,0.73
2019-06-08T06:27:51.863Z,0.80
2019-06-08T06:30:21.151Z,0.70
2019-06-08T06:32:51.940Z,1.00
2019-06-08T06:35:22.490Z,0.70
2019-06-08T06:37:52.084Z,1.00
2019-06-08T06:40:21.178Z,0.90
2019-06-08T06:42:50.307Z,1.13
2019-06-08T06:45:19.615Z,1.23
2019-06-08T06:47:48.675Z,0.90
2019-06-08T06:50:18.269Z,0.90
2019-06-08T06:52:48.801Z,1.43
2019-06-08T06:55:17.934Z,0.90
2019-06-08T06:57:47.273Z,0.90
2019-06-08T07:00:19.291Z,1.00
2019-06-08T07:02:49.988Z,1.30
2019-06-08T07:05:19.174Z,0.80
2019-06-08T07:07:48.289Z,0.93
2019-06-08T07:10:17.330Z,0.50
2019-06-08T07:12:46.601Z,0.80
2019-06-08T07:15:18.917Z,0.67
2019-06-08T07:17:48.416Z,1.63
2019-06-08T07:20:17.510Z,0.93
2019-06-08T07:22:46.634Z,1.57
2019-06-08T07:25:15.601Z,1.07
2019-06-08T07:27:44.575Z,0.70
2019-06-08T07:30:14.067Z,1.03
2019-06-08T07:32:43.215Z,0.87
2019-06-08T07:35:12.855Z,0.70
2019-06-08T07:37:41.991Z,0.90
2019-06-08T07:40:11.346Z,1.00
2019-06-08T07:42:40.491Z,1.23
2019-06-08T07:45:09.717Z,1.40
2019-06-08T07:47:38.795Z,1.73
2019-06-08T07:50:08.539Z,1.00
2019-06-08T07:52:38.699Z,0.90
2019-06-08T07:55:08.946Z,1.30
2019-06-08T07:57:38.421Z,1.07
2019-06-08T08:00:10.783Z,0.90
2019-06-08T08:02:40.276Z,1.30
2019-06-08T08:05:09.627Z,1.23
2019-06-08T08:07:38.695Z,1.03
2019-06-08T08:10:08.636Z,1.80
2019-06-08T08:12:37.936Z,1.20
2019-06-08T08:15:07.585Z,1.43
2019-06-08T08:17:36.824Z,1.33
2019-06-08T08:20:06.345Z,2.03
2019-06-08T08:22:35.371Z,1.30
2019-06-08T08:25:05.147Z,0.77
2019-06-08T08:27:37.384Z,1.60
2019-06-08T08:30:08.307Z,1.30
2019-06-08T08:32:38.167Z,1.03
2019-06-08T08:35:08.782Z,1.33
2019-06-08T08:37:38.295Z,1.03
2019-06-08T08:40:09.024Z,0.83
2019-06-08T08:42:38.883Z,1.00
2019-06-08T08:45:09.123Z,1.50
2019-06-08T08:47:38.898Z,1.00
2019-06-08T08:50:09.300Z,1.40
2019-06-08T08:52:40.982Z,1.30
2019-06-08T08:55:09.819Z,1.20
2019-06-08T08:57:41.701Z,1.20
2019-06-08T09:00:10.284Z,1.70
2019-06-08T09:02:39.582Z,1.37
2019-06-08T09:05:09.398Z,1.60
2019-06-08T09:07:38.789Z,1.60
2019-06-08T09:10:11.178Z,1.20
2019-06-08T09:12:39.286Z,1.07
2019-06-08T09:15:09.367Z,0.80
2019-06-08T09:17:38.966Z,1.40
2019-06-08T09:20:15.496Z,1.17
2019-06-08T09:22:52.498Z,1.73
2019-06-08T09:25:13.541Z,1.67
2019-06-08T09:27:41.908Z,1.07
2019-06-08T09:30:12.256Z,1.50
2019-06-08T09:32:41.372Z,1.17
2019-06-08T09:35:10.905Z,1.10
2019-06-08T09:37:39.886Z,1.20
2019-06-08T09:40:09.354Z,1.30
2019-06-08T09:42:38.722Z,1.10
2019-06-08T09:45:09.343Z,1.30
2019-06-08T09:47:38.344Z,1.07
2019-06-08T09:50:09.217Z,1.97
2019-06-08T09:52:41.039Z,1.23
2019-06-08T09:55:09.711Z,1.40
2019-06-08T09:57:38.976Z,1.73
2019-06-08T10:00:17.730Z,1.47
2019-06-08T10:02:40.484Z,1.40
2019-06-08T10:05:10.028Z,1.37
2019-06-08T10:07:39.148Z,1.60
2019-06-08T10:10:09.787Z,1.63
2019-06-08T10:12:41.033Z,1.27
2019-06-08T10:15:11.010Z,1.53
2019-06-08T10:17:40.107Z,1.70
2019-06-08T10:20:10.182Z,2.00
2019-06-08T10:22:39.405Z,1.90
2019-06-08T10:25:11.295Z,1.60
2019-06-08T10:27:40.005Z,1.50
2019-06-08T10:30:10.959Z,1.27
2019-06-08T10:32:40.106Z,1.87
2019-06-08T10:35:10.595Z,1.30
2019-06-08T10:37:40.254Z,1.40
2019-06-08T10:40:10.296Z,1.50
2019-06-08T10:42:40.217Z,1.13
2019-06-08T10:45:14.414Z,1.50
2019-06-08T10:47:42.097Z,1.77
2019-06-08T10:50:15.422Z,1.40
2019-06-08T10:52:44.056Z,1.00
2019-06-08T10:55:13.358Z,1.13
2019-06-08T11:00:20.156Z,1.60
2019-06-08T11:02:43.773Z,1.33
2019-06-08T11:05:14.163Z,1.30
2019-06-08T11:07:43.443Z,1.57
2019-06-08T11:10:12.923Z,1.37
2019-06-08T11:12:41.901Z,1.03
2019-06-08T11:15:11.908Z,1.50
2019-06-08T11:17:41.692Z,1.20
2019-06-08T11:20:13.152Z,1.27
2019-06-08T11:22:42.066Z,1.27
2019-06-08T11:25:16.164Z,1.20
2019-06-08T11:27:42.108Z,1.50
2019-06-08T11:30:20.599Z,1.97
2019-06-08T11:32:42.129Z,1.10
2019-06-08T11:35:12.613Z,1.10
2019-06-08T11:37:41.765Z,1.20
2019-06-08T11:40:12.732Z,1.77
2019-06-08T11:42:41.910Z,1.40
2019-06-08T11:45:13.041Z,1.73
2019-06-08T11:47:42.128Z,1.67
2019-06-08T11:50:13.211Z,0.90
2019-06-08T11:52:42.114Z,1.77
2019-06-08T11:55:13.075Z,1.10
2019-06-08T11:57:43.635Z,1.20
2019-06-08T12:00:25.216Z,1.70
2019-06-08T12:02:48.630Z,1.60
2019-06-08T12:05:18.088Z,1.80
2019-06-08T12:07:48.042Z,1.87
2019-06-08T12:10:17.847Z,1.47
2019-06-08T12:12:46.808Z,2.00
2019-06-08T12:15:18.201Z,1.63
2019-06-08T12:17:48.207Z,1.37
2019-06-08T12:20:20.210Z,1.40
2019-06-08T12:22:48.368Z,1.67
2019-06-08T12:25:17.403Z,1.73
2019-06-08T12:27:48.708Z,1.40
2019-06-08T12:30:25.326Z,1.67
2019-06-08T12:32:47.972Z,1.77
2019-06-08T12:35:18.112Z,1.60
2019-06-08T12:37:48.831Z,1.53
2019-06-08T12:40:19.530Z,1.67
2019-06-08T12:42:48.551Z,1.57
2019-06-08T12:45:19.959Z,1.30
2019-06-08T12:47:48.919Z,1.30
2019-06-08T12:50:18.213Z,1.40
2019-06-08T12:52:47.633Z,1.20
2019-06-08T12:55:22.263Z,1.67
2019-06-08T12:57:48.431Z,1.50
2019-06-08T13:00:20.146Z,1.50
2019-06-08T13:02:52.171Z,1.27
2019-06-08T13:05:22.938Z,2.00
2019-06-08T13:07:52.196Z,1.40
2019-06-08T13:10:24.075Z,1.33
2019-06-08T13:12:52.062Z,1.17
2019-06-08T13:15:22.028Z,1.50
2019-06-08T13:17:51.198Z,1.73
2019-06-08T13:20:22.560Z,1.60
2019-06-08T13:22:51.868Z,1.97
2019-06-08T13:25:36.372Z,1.73
2019-06-08T13:27:51.924Z,1.37
2019-06-08T13:30:25.859Z,1.13
2019-06-08T13:32:52.280Z,1.50
2019-06-08T13:35:22.517Z,1.77
2019-06-08T13:37:51.644Z,1.30
2019-06-08T13:40:23.518Z,1.20
2019-06-08T13:42:52.296Z,1.47
2019-06-08T13:45:23.334Z,1.73
2019-06-08T13:47:52.079Z,1.47
2019-06-08T13:50:22.623Z,1.57
2019-06-08T13:52:52.002Z,1.43
2019-06-08T13:55:46.926Z,1.50
2019-06-08T13:57:51.735Z,1.87
2019-06-08T14:00:31.151Z,1.33
2019-06-08T14:03:00.904Z,1.57
2019-06-08T14:05:30.979Z,1.80
2019-06-08T14:08:00.347Z,1.70
2019-06-08T14:10:38.537Z,1.60
2019-06-08T14:13:08.103Z,1.50
2019-06-08T14:15:37.918Z,1.77
2019-06-08T14:18:08.813Z,2.20
2019-06-08T14:20:38.742Z,1.73
2019-06-08T14:23:08.987Z,1.50
2019-06-08T14:25:47.902Z,1.63
2019-06-08T14:28:09.002Z,2.07
2019-06-08T14:30:38.072Z,1.87
2019-06-08T14:33:08.228Z,1.57
2019-06-08T14:35:37.691Z,1.60
2019-06-08T14:38:06.766Z,2.37
2019-06-08T14:40:37.620Z,2.33
2019-06-08T14:43:10.511Z,1.90
2019-06-08T14:45:37.890Z,1.97
2019-06-08T14:48:07.092Z,1.30
2019-06-08T14:50:40.292Z,1.77
2019-06-08T14:53:08.483Z,1.30
2019-06-08T14:55:38.695Z,1.50
2019-06-08T14:58:08.495Z,1.83
2019-06-08T15:00:38.412Z,1.50
2019-06-08T15:03:07.836Z,1.27
2019-06-08T15:05:37.113Z,1.30
2019-06-08T15:08:08.299Z,1.90
2019-06-08T15:10:38.523Z,1.60
2019-06-08T15:13:08.401Z,1.50
2019-06-08T15:15:38.184Z,1.30
2019-06-08T15:18:08.396Z,1.73
2019-06-08T15:20:38.470Z,1.63
2019-06-08T15:23:08.379Z,1.60
2019-06-08T15:25:38.698Z,1.63
2019-06-08T15:28:08.366Z,2.13
2019-06-08T15:30:38.920Z,1.60
2019-06-08T15:33:08.680Z,2.00
2019-06-08T15:35:37.901Z,1.83
2019-06-08T15:38:08.377Z,1.80
2019-06-08T15:40:37.985Z,2.20
2019-06-08T15:43:08.590Z,3.03
2019-06-08T15:45:37.895Z,2.87
2019-06-08T15:48:07.977Z,2.33
2019-06-08T15:50:37.874Z,2.33
2019-06-08T15:53:08.355Z,2.80
2019-06-08T15:55:38.316Z,2.10
2019-06-08T16:00:32.866Z,2.30
2019-06-08T16:03:02.275Z,1.87
2019-06-08T16:05:31.682Z,2.20
2019-06-08T16:08:00.746Z,1.93
2019-06-08T16:10:30.272Z,2.30
2019-06-08T16:12:59.323Z,2.43
2019-06-08T16:15:28.813Z,2.70
2019-06-08T16:17:58.062Z,2.60
2019-06-08T16:20:27.537Z,2.70
2019-06-08T16:22:56.543Z,2.27
2019-06-08T16:25:25.640Z,1.97
2019-06-08T16:27:54.728Z,2.33
2019-06-08T16:30:23.828Z,2.20
2019-06-08T16:32:52.801Z,2.20
2019-06-08T16:35:21.740Z,1.70
2019-06-08T16:37:50.677Z,2.17
2019-06-08T16:40:19.687Z,1.97
2019-06-08T16:42:48.645Z,2.47
2019-06-08T16:45:17.699Z,1.90
2019-06-08T16:47:46.646Z,2.47
2019-06-08T16:50:24.247Z,2.00
2019-06-08T16:52:46.401Z,2.03
2019-06-08T16:55:15.600Z,2.07
2019-06-08T16:57:44.649Z,2.73
2019-06-08T17:00:31.520Z,2.33
2019-06-08T17:02:45.017Z,2.60
2019-06-08T17:05:14.227Z,2.33
2019-06-08T17:07:43.263Z,2.13
2019-06-08T17:10:12.917Z,1.73
2019-06-08T17:12:41.774Z,2.33
2019-06-08T17:15:11.124Z,1.70
2019-06-08T17:17:40.501Z,2.10
2019-06-08T17:20:09.758Z,1.80
2019-06-08T17:22:39.182Z,2.20
2019-06-08T17:25:08.633Z,2.20
2019-06-08T17:27:38.844Z,2.33
2019-06-08T17:30:09.166Z,2.30
2019-06-08T17:32:38.662Z,1.90
2019-06-08T17:35:10.675Z,2.27
2019-06-08T17:37:40.158Z,2.33
2019-06-08T17:40:09.408Z,1.83
2019-06-08T17:42:39.625Z,1.70
2019-06-08T17:45:08.708Z,1.40
2019-06-08T17:47:38.529Z,1.47
2019-06-08T17:50:08.083Z,1.80
2019-06-08T17:52:37.201Z,1.43
2019-06-08T17:55:06.483Z,1.63
2019-06-08T17:57:47.312Z,1.50
2019-06-08T18:00:10.884Z,1.40
2019-06-08T18:02:42.034Z,1.30
2019-06-08T18:05:09.858Z,1.70
2019-06-08T18:07:41.827Z,1.80
2019-06-08T18:10:09.861Z,1.50
2019-06-08T18:12:41.179Z,1.20
2019-06-08T18:15:09.835Z,2.27
2019-06-08T18:17:42.077Z,1.57
2019-06-08T18:20:13.115Z,1.27
2019-06-08T18:22:44.334Z,1.30
2019-06-08T18:25:13.398Z,1.40
2019-06-08T18:27:57.992Z,1.60
2019-06-08T18:30:14.697Z,1.60
2019-06-08T18:32:45.674Z,1.43
2019-06-08T18:35:15.410Z,1.50
2019-06-08T18:37:45.509Z,1.13
2019-06-08T18:40:17.900Z,1.57
2019-06-08T18:42:48.758Z,1.50
2019-06-08T18:45:18.932Z,1.53
2019-06-08T18:47:48.519Z,1.37
2019-06-08T18:50:18.006Z,1.67
2019-06-08T18:52:49.616Z,2.00
2019-06-08T18:55:18.440Z,1.40
2019-06-08T18:57:48.936Z,1.20
2019-06-08T19:00:18.605Z,1.57
2019-06-08T19:02:50.027Z,1.30
2019-06-08T19:05:21.350Z,1.00
2019-06-08T19:07:51.626Z,1.17
2019-06-08T19:10:32.065Z,1.50
2019-06-08T19:13:01.131Z,1.40
2019-06-08T19:15:38.831Z,1.30
2019-06-08T19:18:07.954Z,1.00
2019-06-08T19:20:40.805Z,1.60
2019-06-08T19:23:09.059Z,1.17
2019-06-08T19:25:42.116Z,1.30
2019-06-08T19:28:08.968Z,1.67
2019-06-08T19:30:40.917Z,1.33
2019-06-08T19:33:09.387Z,1.20
2019-06-08T19:35:39.333Z,1.23
2019-06-08T19:38:08.924Z,1.13
2019-06-08T19:40:39.221Z,1.17
2019-06-08T19:43:08.375Z,1.17
2019-06-08T19:45:39.087Z,1.33
2019-06-08T19:48:08.389Z,1.30
2019-06-08T19:50:38.634Z,1.10
2019-06-08T19:53:08.088Z,0.80
2019-06-08T19:55:37.096Z,1.20
2019-06-08T19:58:08.560Z,1.20
2019-06-08T20:00:40.060Z,1.70
2019-06-08T20:03:07.785Z,1.40
2019-06-08T20:05:37.818Z,1.30
2019-06-08T20:08:08.081Z,0.90
2019-06-08T20:10:40.986Z,1.17
2019-06-08T20:13:10.107Z,1.87
2019-06-08T20:15:43.296Z,1.00
2019-06-08T20:18:09.863Z,1.37
2019-06-08T20:20:38.856Z,1.10
2019-06-08T20:23:09.811Z,1.60
2019-06-08T20:25:38.517Z,1.00
2019-06-08T20:28:07.963Z,1.23
2019-06-08T20:30:37.034Z,1.23
2019-06-08T20:33:08.119Z,1.47
2019-06-08T20:35:37.619Z,1.20
2019-06-08T20:38:08.264Z,0.70
2019-06-08T20:40:38.374Z,1.20
2019-06-08T20:43:07.576Z,1.27
2019-06-08T20:45:37.456Z,1.03
2019-06-08T20:48:06.679Z,1.17
2019-06-08T20:50:37.757Z,1.20
2019-06-08T20:53:08.438Z,1.00
2019-06-08T20:55:40.227Z,1.43
2019-06-08T20:58:08.112Z,1.23
2019-06-08T21:00:37.806Z,1.57
2019-06-08T21:03:08.202Z,1.00
2019-06-08T21:05:37.294Z,1.00
2019-06-08T21:08:08.420Z,1.40
2019-06-08T21:10:37.776Z,1.17
2019-06-08T21:13:07.342Z,1.43
2019-06-08T21:15:38.251Z,1.30
2019-06-08T21:18:07.856Z,1.47
2019-06-08T21:20:37.794Z,1.27
2019-06-08T21:23:08.104Z,1.30
2019-06-08T21:25:37.385Z,1.13
2019-06-08T21:28:07.745Z,1.20
2019-06-08T21:30:37.768Z,0.90
2019-06-08T21:33:08.364Z,1.00
2019-06-08T21:35:37.547Z,1.20
2019-06-08T21:38:20.265Z,1.57
2019-06-08T21:40:37.666Z,1.27
2019-06-08T21:43:08.106Z,1.27
2019-06-08T21:45:38.136Z,1.60
2019-06-08T21:48:07.580Z,1.20
2019-06-08T21:50:37.114Z,1.30
2019-06-08T21:55:38.139Z,1.70
2019-06-08T21:58:08.083Z,1.50
2019-06-08T22:00:42.707Z,1.70
2019-06-08T22:03:08.632Z,0.90
2019-06-08T22:05:37.839Z,1.40
2019-06-08T22:08:07.944Z,1.40
2019-06-08T22:10:37.699Z,1.33
2019-06-08T22:13:08.603Z,1.20
2019-06-08T22:15:38.049Z,1.47
2019-06-08T22:18:08.094Z,1.07
2019-06-08T22:20:38.337Z,1.20
2019-06-08T22:23:07.560Z,1.40
2019-06-08T22:25:38.540Z,1.47
2019-06-08T22:28:07.391Z,1.70
2019-06-08T22:30:42.555Z,1.30
2019-06-08T22:33:07.007Z,1.50
2019-06-08T22:35:37.286Z,1.50
2019-06-08T22:38:08.456Z,1.30
2019-06-08T22:40:37.238Z,1.07
2019-06-08T22:43:08.024Z,1.40
2019-06-08T22:45:37.446Z,1.33
2019-06-08T22:48:08.278Z,1.60
2019-06-08T22:50:38.199Z,1.60
2019-06-08T22:53:08.141Z,1.20
2019-06-08T22:55:38.240Z,1.83
2019-06-08T22:58:07.853Z,1.40
2019-06-08T23:00:51.844Z,1.90
2019-06-08T23:03:08.644Z,1.90
2019-06-08T23:05:37.979Z,1.57
2019-06-08T23:08:09.450Z,1.50
2019-06-08T23:10:37.721Z,1.63
2019-06-08T23:13:08.523Z,1.80
2019-06-08T23:15:37.481Z,1.47
2019-06-08T23:18:09.136Z,1.60
2019-06-08T23:20:37.190Z,1.53
2019-06-08T23:23:08.701Z,1.50
2019-06-08T23:25:37.275Z,1.30
2019-06-08T23:28:09.541Z,1.80
2019-06-08T23:30:38.320Z,1.60
2019-06-08T23:33:11.442Z,1.60
2019-06-08T23:35:57.185Z,1.83
2019-06-08T23:38:09.453Z,1.83
2019-06-08T23:40:38.538Z,1.53
2019-06-08T23:43:08.292Z,1.63
2019-06-08T23:45:38.007Z,2.10
2019-06-08T23:48:07.133Z,1.90
2019-06-08T23:50:37.958Z,1.50
2019-06-08T23:53:09.136Z,1.23
2019-06-08T23:55:37.664Z,1.93
2019-06-08T23:58:09.468Z,1.67
